createdAt,value
2022-12-06T00:01:22.844Z,13.15
2022-12-06T00:06:18.789Z,12.10
2022-12-06T00:11:43.661Z,13.02
2022-12-06T00:16:37.434Z,13.77
2022-12-06T00:21:38.087Z,11.77
2022-12-06T00:26:31.564Z,13.45
2022-12-06T00:31:26.550Z,12.82
2022-12-06T00:36:25.869Z,12.70
2022-12-06T00:41:21.369Z,12.10
2022-12-06T00:46:18.215Z,12.88
2022-12-06T00:51:12.018Z,11.77
2022-12-06T00:56:06.726Z,12.07
2022-12-06T01:01:13.197Z,16.23
2022-12-06T01:06:09.019Z,15.18
2022-12-06T01:11:03.998Z,16.65
2022-12-06T01:15:57.619Z,11.73
2022-12-06T01:20:50.833Z,13.70
2022-12-06T01:25:54.912Z,15.32
2022-12-06T01:30:49.565Z,14.70
2022-12-06T01:35:44.195Z,12.05
2022-12-06T01:40:57.679Z,14.38
2022-12-06T01:45:51.611Z,13.85
2022-12-06T01:50:45.177Z,13.95
2022-12-06T01:55:40.690Z,13.13
2022-12-06T02:00:33.983Z,13.88
2022-12-06T02:05:27.174Z,12.48
2022-12-06T02:10:20.764Z,12.80
2022-12-06T02:15:17.815Z,13.52
2022-12-06T02:20:19.937Z,12.35
2022-12-06T02:25:50.684Z,14.73
2022-12-06T02:31:00.328Z,15.68
2022-12-06T02:36:05.711Z,14.52
2022-12-06T02:41:02.632Z,15.25
2022-12-06T02:45:58.049Z,11.25
2022-12-06T02:51:15.122Z,13.30
2022-12-06T02:56:09.832Z,11.48
2022-12-06T03:01:05.554Z,15.32
2022-12-06T03:06:04.496Z,12.70
2022-12-06T03:11:02.204Z,13.95
2022-12-06T03:16:07.801Z,18.83
2022-12-06T03:21:09.510Z,14.40
2022-12-06T03:26:04.896Z,13.52
2022-12-06T03:31:04.248Z,14.30
2022-12-06T03:40:52.826Z,16.60
2022-12-06T03:46:17.814Z,13.27
2022-12-06T03:51:14.574Z,13.80
2022-12-06T03:56:11.886Z,12.05
2022-12-06T04:01:06.104Z,12.27
2022-12-06T04:06:01.907Z,15.32
2022-12-06T04:10:56.177Z,13.13
2022-12-06T04:15:50.167Z,14.73
2022-12-06T04:21:08.116Z,11.95
2022-12-06T04:26:01.953Z,14.90
2022-12-06T04:31:18.571Z,17.27
2022-12-06T04:36:33.539Z,15.77
2022-12-06T04:41:45.666Z,12.45
2022-12-06T04:46:39.602Z,17.05
2022-12-06T04:51:32.901Z,13.02
2022-12-06T04:56:26.929Z,14.88
2022-12-06T05:01:19.958Z,14.68
2022-12-06T05:06:13.550Z,12.48
2022-12-06T05:11:07.604Z,13.32
2022-12-06T05:16:03.581Z,15.15
2022-12-06T05:21:06.544Z,12.82
2022-12-06T05:26:04.046Z,14.40
2022-12-06T05:30:57.528Z,15.15
2022-12-06T05:35:50.764Z,14.40
2022-12-06T05:40:45.321Z,15.35
2022-12-06T05:45:39.403Z,14.23
2022-12-06T05:50:32.819Z,15.60
2022-12-06T05:55:26.578Z,13.65
2022-12-06T06:00:20.894Z,15.35
2022-12-06T06:05:15.149Z,17.35
2022-12-06T06:10:09.157Z,16.33
2022-12-06T06:15:02.637Z,12.82
2022-12-06T06:19:56.413Z,14.63
2022-12-06T06:24:50.055Z,15.45
2022-12-06T06:29:45.460Z,21.10
2022-12-06T06:34:38.736Z,15.23
2022-12-06T06:39:32.862Z,14.80
2022-12-06T06:44:27.185Z,18.10
2022-12-06T06:49:20.312Z,17.42
2022-12-06T06:54:14.072Z,17.20
2022-12-06T06:59:07.657Z,16.88
2022-12-06T07:04:01.987Z,16.90
2022-12-06T07:08:55.893Z,16.42
2022-12-06T07:13:52.787Z,16.48
2022-12-06T07:18:47.782Z,16.08
2022-12-06T07:23:41.791Z,16.27
2022-12-06T07:28:42.853Z,14.65
2022-12-06T07:33:37.087Z,17.50
2022-12-06T07:38:30.860Z,18.20
2022-12-06T07:43:43.000Z,17.15
2022-12-06T07:48:36.316Z,18.48
2022-12-06T07:53:30.135Z,14.15
2022-12-06T07:58:24.526Z,14.55
2022-12-06T08:03:18.114Z,17.10
2022-12-06T08:08:12.417Z,14.85
2022-12-06T08:13:06.771Z,14.60
2022-12-06T08:18:00.947Z,11.50
2022-12-06T08:22:54.297Z,13.38
2022-12-06T08:27:48.677Z,13.93
2022-12-06T08:32:41.636Z,10.40
2022-12-06T08:37:35.992Z,10.45
2022-12-06T08:42:30.331Z,11.63
2022-12-06T08:47:24.564Z,11.48
2022-12-06T08:52:18.464Z,11.57
2022-12-06T08:57:11.359Z,9.95
2022-12-06T09:02:05.648Z,14.30
2022-12-06T09:06:59.982Z,9.32
2022-12-06T09:11:54.140Z,10.25
2022-12-06T09:16:47.746Z,9.30
2022-12-06T09:21:43.325Z,10.70
2022-12-06T09:26:36.393Z,9.77
2022-12-06T09:31:30.098Z,16.08
2022-12-06T09:36:24.303Z,10.35
2022-12-06T09:41:38.600Z,9.30
2022-12-06T09:46:50.368Z,9.57
2022-12-06T09:51:56.756Z,8.40
2022-12-06T09:56:59.196Z,9.75
2022-12-06T10:02:02.409Z,9.00
2022-12-06T10:07:20.157Z,9.45
2022-12-06T10:12:31.180Z,8.07
2022-12-06T10:17:33.410Z,9.73
2022-12-06T10:22:48.403Z,11.07
2022-12-06T10:28:00.240Z,8.27
2022-12-06T10:33:22.752Z,8.93
2022-12-06T10:38:21.787Z,10.57
2022-12-06T10:43:34.650Z,10.43
2022-12-06T10:48:37.683Z,8.63
2022-12-06T10:53:34.227Z,10.93
2022-12-06T10:58:42.881Z,10.27
2022-12-06T11:03:55.482Z,10.68
2022-12-06T11:08:57.321Z,9.48
2022-12-06T11:13:56.901Z,10.80
2022-12-06T11:18:50.649Z,10.43
2022-12-06T11:24:09.078Z,9.70
2022-12-06T11:29:07.935Z,11.60
2022-12-06T11:34:01.841Z,12.30
2022-12-06T11:38:55.244Z,9.52
2022-12-06T11:43:49.710Z,8.40
2022-12-06T11:48:44.025Z,10.55
2022-12-06T11:53:45.103Z,10.77
2022-12-06T11:58:47.478Z,9.77
2022-12-06T12:03:44.454Z,10.77
2022-12-06T12:08:38.003Z,11.48
2022-12-06T12:13:47.417Z,11.75
2022-12-06T12:18:51.106Z,15.82
2022-12-06T12:23:48.141Z,12.43
2022-12-06T12:28:42.207Z,12.85
2022-12-06T12:33:36.644Z,13.43
2022-12-06T12:38:38.708Z,14.30
2022-12-06T12:43:34.222Z,14.52
2022-12-06T12:48:29.462Z,15.68
2022-12-06T12:53:37.155Z,18.27
2022-12-06T12:58:35.743Z,13.43
2022-12-06T13:08:43.169Z,13.38
2022-12-06T13:13:41.522Z,14.20
2022-12-06T13:18:49.838Z,11.85
2022-12-06T13:23:43.931Z,12.85
2022-12-06T13:28:41.491Z,13.05
2022-12-06T13:33:35.446Z,14.13
2022-12-06T13:38:34.545Z,15.13
2022-12-06T13:48:46.544Z,15.32
2022-12-06T13:54:24.387Z,14.90
2022-12-06T13:59:17.628Z,16.63
2022-12-06T14:04:45.680Z,16.20
2022-12-06T14:09:45.537Z,16.75
2022-12-06T14:14:39.471Z,20.67
2022-12-06T14:19:41.197Z,21.50
2022-12-06T14:24:42.447Z,18.60
2022-12-06T14:29:39.586Z,19.30
2022-12-06T14:34:35.568Z,18.08
2022-12-06T14:39:33.782Z,22.85
2022-12-06T14:44:32.551Z,20.77
2022-12-06T14:49:45.021Z,20.80
2022-12-06T14:54:45.219Z,21.67
2022-12-06T15:00:13.580Z,22.48
2022-12-06T15:04:52.615Z,20.85
2022-12-06T15:09:47.620Z,24.50
2022-12-06T15:14:40.852Z,20.83
2022-12-06T15:19:35.029Z,24.45
2022-12-06T15:24:28.909Z,22.95
2022-12-06T15:29:22.835Z,22.50
2022-12-06T15:34:35.662Z,23.92
2022-12-06T15:39:30.066Z,26.85
2022-12-06T15:44:26.442Z,27.60
2022-12-06T15:49:27.445Z,23.73
2022-12-06T15:54:23.908Z,21.92
2022-12-06T15:59:17.999Z,20.48
2022-12-06T16:04:35.550Z,26.42
2022-12-06T16:09:29.325Z,34.00
2022-12-06T16:14:23.438Z,31.75
2022-12-06T16:19:16.915Z,30.67
2022-12-06T16:24:14.745Z,24.92
2022-12-06T16:29:10.653Z,25.83
2022-12-06T16:34:04.682Z,27.48
2022-12-06T16:39:02.196Z,26.33
2022-12-06T16:43:56.644Z,29.52
2022-12-06T16:48:55.663Z,29.08
2022-12-06T16:53:50.255Z,25.50
2022-12-06T16:58:43.510Z,32.35
2022-12-06T17:03:37.795Z,22.65
2022-12-06T17:08:31.799Z,36.05
2022-12-06T17:13:25.772Z,30.92
2022-12-06T17:18:19.851Z,28.65
2022-12-06T17:23:13.326Z,33.60
2022-12-06T17:28:07.493Z,36.83
2022-12-06T17:33:01.144Z,34.88
2022-12-06T17:37:54.670Z,40.97
2022-12-06T17:43:03.001Z,31.85
2022-12-06T17:47:55.036Z,35.08
2022-12-06T17:52:49.331Z,34.67
2022-12-06T17:57:43.204Z,38.85
2022-12-06T18:02:36.502Z,34.05
2022-12-06T18:07:30.862Z,40.95
2022-12-06T18:12:24.367Z,38.65
2022-12-06T18:17:18.755Z,35.97
2022-12-06T18:22:11.916Z,30.98
2022-12-06T18:27:07.134Z,31.27
2022-12-06T18:32:00.756Z,29.50
2022-12-06T18:36:54.714Z,33.92
2022-12-06T18:41:48.201Z,28.63
2022-12-06T18:46:43.012Z,32.63
2022-12-06T18:51:36.950Z,34.75
2022-12-06T18:56:30.869Z,37.83
2022-12-06T19:01:28.411Z,31.27
2022-12-06T19:06:24.979Z,40.33
2022-12-06T19:11:19.583Z,31.38
2022-12-06T19:16:13.304Z,31.10
2022-12-06T19:21:07.410Z,31.50
2022-12-06T19:26:01.959Z,34.00
2022-12-06T19:31:03.063Z,30.38
2022-12-06T19:36:02.743Z,33.88
2022-12-06T19:45:49.166Z,26.15
2022-12-06T19:50:42.634Z,31.42
2022-12-06T19:55:36.812Z,32.22
2022-12-06T20:00:30.825Z,42.28
2022-12-06T20:05:23.895Z,32.15
2022-12-06T20:10:17.885Z,30.65
2022-12-06T20:15:14.462Z,28.70
2022-12-06T20:20:09.762Z,32.90
2022-12-06T20:25:04.288Z,30.52
2022-12-06T20:29:58.685Z,33.78
2022-12-06T20:34:52.410Z,30.13
2022-12-06T20:39:46.365Z,36.17
2022-12-06T20:44:40.334Z,37.78
2022-12-06T20:49:34.268Z,30.00
2022-12-06T20:54:28.531Z,32.25
2022-12-06T20:59:22.169Z,31.52
2022-12-06T21:04:16.643Z,35.13
2022-12-06T21:09:10.130Z,35.13
2022-12-06T21:14:04.546Z,34.00
2022-12-06T21:19:03.095Z,29.40
2022-12-06T21:23:59.993Z,40.43
2022-12-06T21:28:54.149Z,34.33
2022-12-06T21:33:47.988Z,45.80
2022-12-06T21:38:42.986Z,39.58
2022-12-06T21:43:36.969Z,34.10
2022-12-06T21:48:31.133Z,27.27
2022-12-06T21:53:24.626Z,39.03
2022-12-06T21:58:17.984Z,37.72
2022-12-06T22:03:15.219Z,39.20
2022-12-06T22:08:11.529Z,33.83
2022-12-06T22:13:05.741Z,34.60
2022-12-06T22:17:59.739Z,36.72
2022-12-06T22:22:53.626Z,35.58
2022-12-06T22:27:47.498Z,37.58
2022-12-06T22:32:41.806Z,40.00
2022-12-06T22:37:35.708Z,36.75
2022-12-06T22:42:28.875Z,40.72
2022-12-06T22:47:23.101Z,34.17
2022-12-06T22:52:16.590Z,41.03
2022-12-06T22:57:10.513Z,36.88
2022-12-06T23:02:04.116Z,46.83
2022-12-06T23:06:58.552Z,44.97
2022-12-06T23:11:52.883Z,42.42
2022-12-06T23:16:47.493Z,43.00
2022-12-06T23:21:42.691Z,44.45
2022-12-06T23:26:39.306Z,42.08
2022-12-06T23:31:35.082Z,38.78
2022-12-06T23:36:30.465Z,37.90
2022-12-06T23:41:28.852Z,35.25
2022-12-06T23:46:23.494Z,40.63
2022-12-06T23:51:18.525Z,42.60
2022-12-06T23:56:14.018Z,37.42
